sensor_id;sensor_type;location;lat;lon;timestamp;P1;durP1;ratioP1;P2;durP2;ratioP2
9214;SDS011;4642;51.364;6.788;2023-02-26T00:01:23;6.67;;;1.50;;
9214;SDS011;4642;51.364;6.788;2023-02-26T00:03:51;3.37;;;0.90;;
9214;SDS011;4642;51.364;6.788;2023-02-26T00:06:21;3.10;;;1.10;;
9214;SDS011;4642;51.364;6.788;2023-02-26T00:08:48;4.10;;;1.37;;
9214;SDS011;4642;51.364;6.788;2023-02-26T00:11:14;5.93;;;1.47;;
9214;SDS011;4642;51.364;6.788;2023-02-26T00:13:41;1.30;;;0.83;;
9214;SDS011;4642;51.364;6.788;2023-02-26T00:16:19;3.30;;;1.00;;
9214;SDS011;4642;51.364;6.788;2023-02-26T00:18:51;3.90;;;1.00;;
9214;SDS011;4642;51.364;6.788;2023-02-26T00:21:17;2.77;;;1.03;;
9214;SDS011;4642;51.364;6.788;2023-02-26T00:23:45;2.13;;;1.03;;
9214;SDS011;4642;51.364;6.788;2023-02-26T00:26:10;2.90;;;1.00;;
9214;SDS011;4642;51.364;6.788;2023-02-26T00:28:36;4.17;;;1.10;;
9214;SDS011;4642;51.364;6.788;2023-02-26T00:31:02;4.10;;;1.17;;
9214;SDS011;4642;51.364;6.788;2023-02-26T00:33:29;5.43;;;1.40;;
9214;SDS011;4642;51.364;6.788;2023-02-26T00:36:00;4.10;;;1.37;;
9214;SDS011;4642;51.364;6.788;2023-02-26T00:38:42;4.77;;;1.50;;
9214;SDS011;4642;51.364;6.788;2023-02-26T00:41:12;2.37;;;1.00;;
9214;SDS011;4642;51.364;6.788;2023-02-26T00:43:39;2.40;;;1.00;;
9214;SDS011;4642;51.364;6.788;2023-02-26T00:53:46;1.60;;;1.00;;
9214;SDS011;4642;51.364;6.788;2023-02-26T00:56:20;4.40;;;1.47;;
9214;SDS011;4642;51.364;6.788;2023-02-26T00:58:46;7.17;;;1.33;;
9214;SDS011;4642;51.364;6.788;2023-02-26T01:01:11;5.50;;;1.90;;
9214;SDS011;4642;51.364;6.788;2023-02-26T01:03:37;2.43;;;1.20;;
9214;SDS011;4642;51.364;6.788;2023-02-26T01:06:03;6.73;;;1.60;;
9214;SDS011;4642;51.364;6.788;2023-02-26T01:08:31;1.93;;;1.07;;
9214;SDS011;4642;51.364;6.788;2023-02-26T01:11:00;4.37;;;1.17;;
9214;SDS011;4642;51.364;6.788;2023-02-26T01:13:26;5.33;;;1.70;;
9214;SDS011;4642;51.364;6.788;2023-02-26T01:15:54;6.70;;;1.73;;
9214;SDS011;4642;51.364;6.788;2023-02-26T01:18:25;4.93;;;1.37;;
9214;SDS011;4642;51.364;6.788;2023-02-26T01:20:59;5.40;;;1.33;;
9214;SDS011;4642;51.364;6.788;2023-02-26T01:23:30;7.13;;;1.93;;
9214;SDS011;4642;51.364;6.788;2023-02-26T01:26:13;12.10;;;2.00;;
9214;SDS011;4642;51.364;6.788;2023-02-26T01:28:44;5.03;;;1.77;;
9214;SDS011;4642;51.364;6.788;2023-02-26T01:31:14;2.90;;;1.17;;
9214;SDS011;4642;51.364;6.788;2023-02-26T01:34:22;3.17;;;1.57;;
9214;SDS011;4642;51.364;6.788;2023-02-26T01:37:22;5.23;;;1.70;;
9214;SDS011;4642;51.364;6.788;2023-02-26T01:42:42;14.13;;;2.17;;
9214;SDS011;4642;51.364;6.788;2023-02-26T01:45:18;4.67;;;1.20;;
9214;SDS011;4642;51.364;6.788;2023-02-26T01:48:02;3.07;;;1.47;;
9214;SDS011;4642;51.364;6.788;2023-02-26T01:50:34;6.57;;;1.37;;
9214;SDS011;4642;51.364;6.788;2023-02-26T01:53:15;3.10;;;1.70;;
9214;SDS011;4642;51.364;6.788;2023-02-26T01:55:42;3.80;;;1.70;;
9214;SDS011;4642;51.364;6.788;2023-02-26T01:58:09;2.60;;;1.63;;
9214;SDS011;4642;51.364;6.788;2023-02-26T02:00:35;3.47;;;1.87;;
9214;SDS011;4642;51.364;6.788;2023-02-26T02:03:01;3.70;;;1.30;;
9214;SDS011;4642;51.364;6.788;2023-02-26T02:05:30;3.53;;;1.73;;
9214;SDS011;4642;51.364;6.788;2023-02-26T02:07:59;4.70;;;1.20;;
9214;SDS011;4642;51.364;6.788;2023-02-26T02:10:26;2.23;;;1.10;;
9214;SDS011;4642;51.364;6.788;2023-02-26T02:13:00;6.13;;;1.30;;
9214;SDS011;4642;51.364;6.788;2023-02-26T02:15:49;4.23;;;1.43;;
9214;SDS011;4642;51.364;6.788;2023-02-26T02:21:38;6.23;;;1.77;;
9214;SDS011;4642;51.364;6.788;2023-02-26T02:24:27;7.87;;;1.43;;
9214;SDS011;4642;51.364;6.788;2023-02-26T02:27:00;2.77;;;1.20;;
9214;SDS011;4642;51.364;6.788;2023-02-26T02:32:35;5.27;;;1.93;;
9214;SDS011;4642;51.364;6.788;2023-02-26T02:35:19;14.43;;;1.43;;
9214;SDS011;4642;51.364;6.788;2023-02-26T02:37:54;5.17;;;1.50;;
9214;SDS011;4642;51.364;6.788;2023-02-26T02:40:31;5.03;;;1.33;;
9214;SDS011;4642;51.364;6.788;2023-02-26T02:43:01;4.20;;;1.20;;
9214;SDS011;4642;51.364;6.788;2023-02-26T02:48:29;3.50;;;1.40;;
9214;SDS011;4642;51.364;6.788;2023-02-26T02:50:58;3.80;;;1.57;;
9214;SDS011;4642;51.364;6.788;2023-02-26T02:53:36;1.90;;;1.10;;
9214;SDS011;4642;51.364;6.788;2023-02-26T02:56:09;2.07;;;1.03;;
9214;SDS011;4642;51.364;6.788;2023-02-26T02:58:53;3.60;;;1.23;;
9214;SDS011;4642;51.364;6.788;2023-02-26T03:01:28;1.70;;;1.33;;
9214;SDS011;4642;51.364;6.788;2023-02-26T03:03:57;3.90;;;1.30;;
9214;SDS011;4642;51.364;6.788;2023-02-26T03:06:28;3.57;;;1.20;;
9214;SDS011;4642;51.364;6.788;2023-02-26T03:08:53;3.50;;;1.23;;
9214;SDS011;4642;51.364;6.788;2023-02-26T03:11:19;0.97;;;0.83;;
9214;SDS011;4642;51.364;6.788;2023-02-26T03:13:45;3.93;;;1.20;;
9214;SDS011;4642;51.364;6.788;2023-02-26T03:16:19;3.93;;;1.50;;
9214;SDS011;4642;51.364;6.788;2023-02-26T03:21:49;9.07;;;1.10;;
9214;SDS011;4642;51.364;6.788;2023-02-26T03:24:36;5.30;;;1.43;;
9214;SDS011;4642;51.364;6.788;2023-02-26T03:27:22;4.27;;;1.17;;
9214;SDS011;4642;51.364;6.788;2023-02-26T03:35:48;3.77;;;1.10;;
9214;SDS011;4642;51.364;6.788;2023-02-26T03:38:27;3.60;;;1.40;;
9214;SDS011;4642;51.364;6.788;2023-02-26T03:41:14;2.73;;;1.13;;
9214;SDS011;4642;51.364;6.788;2023-02-26T03:44:10;2.23;;;0.97;;
9214;SDS011;4642;51.364;6.788;2023-02-26T03:46:41;2.90;;;1.30;;
9214;SDS011;4642;51.364;6.788;2023-02-26T03:49:17;3.90;;;1.07;;
9214;SDS011;4642;51.364;6.788;2023-02-26T03:51:48;10.20;;;1.40;;
9214;SDS011;4642;51.364;6.788;2023-02-26T03:54:22;3.47;;;1.60;;
9214;SDS011;4642;51.364;6.788;2023-02-26T03:56:51;5.03;;;1.10;;
9214;SDS011;4642;51.364;6.788;2023-02-26T03:59:17;4.90;;;1.77;;
9214;SDS011;4642;51.364;6.788;2023-02-26T04:01:46;1.40;;;1.20;;
9214;SDS011;4642;51.364;6.788;2023-02-26T04:04:32;3.67;;;1.20;;
9214;SDS011;4642;51.364;6.788;2023-02-26T04:07:01;1.83;;;1.10;;
9214;SDS011;4642;51.364;6.788;2023-02-26T04:09:27;8.27;;;1.70;;
9214;SDS011;4642;51.364;6.788;2023-02-26T04:11:52;2.90;;;1.10;;
9214;SDS011;4642;51.364;6.788;2023-02-26T04:14:20;2.77;;;1.37;;
9214;SDS011;4642;51.364;6.788;2023-02-26T04:16:46;3.10;;;0.93;;
9214;SDS011;4642;51.364;6.788;2023-02-26T04:19:11;4.43;;;1.70;;
9214;SDS011;4642;51.364;6.788;2023-02-26T04:21:37;5.00;;;1.10;;
9214;SDS011;4642;51.364;6.788;2023-02-26T04:24:02;3.67;;;1.07;;
9214;SDS011;4642;51.364;6.788;2023-02-26T04:26:28;5.33;;;1.67;;
9214;SDS011;4642;51.364;6.788;2023-02-26T04:28:53;2.00;;;1.10;;
9214;SDS011;4642;51.364;6.788;2023-02-26T04:31:19;4.13;;;1.20;;
9214;SDS011;4642;51.364;6.788;2023-02-26T04:33:45;2.60;;;0.90;;
9214;SDS011;4642;51.364;6.788;2023-02-26T04:36:10;4.70;;;1.00;;
9214;SDS011;4642;51.364;6.788;2023-02-26T04:38:36;4.13;;;1.40;;
9214;SDS011;4642;51.364;6.788;2023-02-26T04:41:01;2.30;;;1.20;;
9214;SDS011;4642;51.364;6.788;2023-02-26T04:43:27;2.80;;;1.07;;
9214;SDS011;4642;51.364;6.788;2023-02-26T04:45:53;2.33;;;1.13;;
9214;SDS011;4642;51.364;6.788;2023-02-26T04:48:18;4.07;;;1.60;;
9214;SDS011;4642;51.364;6.788;2023-02-26T04:50:44;1.33;;;0.93;;
9214;SDS011;4642;51.364;6.788;2023-02-26T04:53:10;1.40;;;0.93;;
9214;SDS011;4642;51.364;6.788;2023-02-26T04:55:36;4.43;;;1.13;;
9214;SDS011;4642;51.364;6.788;2023-02-26T04:58:02;7.30;;;1.10;;
9214;SDS011;4642;51.364;6.788;2023-02-26T05:00:27;2.30;;;1.00;;
9214;SDS011;4642;51.364;6.788;2023-02-26T05:02:53;4.30;;;1.37;;
9214;SDS011;4642;51.364;6.788;2023-02-26T05:05:19;4.17;;;1.43;;
9214;SDS011;4642;51.364;6.788;2023-02-26T05:07:44;3.23;;;1.00;;
9214;SDS011;4642;51.364;6.788;2023-02-26T05:10:10;7.00;;;1.20;;
9214;SDS011;4642;51.364;6.788;2023-02-26T05:12:36;2.37;;;0.83;;
9214;SDS011;4642;51.364;6.788;2023-02-26T05:15:02;3.57;;;1.27;;
9214;SDS011;4642;51.364;6.788;2023-02-26T05:17:28;3.10;;;0.83;;
9214;SDS011;4642;51.364;6.788;2023-02-26T05:19:53;2.73;;;0.70;;
9214;SDS011;4642;51.364;6.788;2023-02-26T05:22:19;3.33;;;0.90;;
9214;SDS011;4642;51.364;6.788;2023-02-26T05:24:45;3.70;;;1.10;;
9214;SDS011;4642;51.364;6.788;2023-02-26T05:27:10;4.67;;;1.20;;
9214;SDS011;4642;51.364;6.788;2023-02-26T05:29:36;3.13;;;1.23;;
9214;SDS011;4642;51.364;6.788;2023-02-26T05:32:02;2.30;;;0.80;;
9214;SDS011;4642;51.364;6.788;2023-02-26T05:34:28;1.93;;;0.93;;
9214;SDS011;4642;51.364;6.788;2023-02-26T05:36:54;2.23;;;0.93;;
9214;SDS011;4642;51.364;6.788;2023-02-26T05:39:19;2.67;;;0.90;;
9214;SDS011;4642;51.364;6.788;2023-02-26T05:41:44;5.27;;;1.13;;
9214;SDS011;4642;51.364;6.788;2023-02-26T05:44:11;5.03;;;0.97;;
9214;SDS011;4642;51.364;6.788;2023-02-26T05:46:36;3.30;;;0.83;;
9214;SDS011;4642;51.364;6.788;2023-02-26T05:49:02;3.60;;;1.20;;
9214;SDS011;4642;51.364;6.788;2023-02-26T05:51:27;1.47;;;0.87;;
9214;SDS011;4642;51.364;6.788;2023-02-26T05:53:53;1.63;;;1.07;;
9214;SDS011;4642;51.364;6.788;2023-02-26T05:56:19;5.27;;;1.03;;
9214;SDS011;4642;51.364;6.788;2023-02-26T05:58:44;3.80;;;1.07;;
9214;SDS011;4642;51.364;6.788;2023-02-26T06:01:10;3.97;;;0.83;;
9214;SDS011;4642;51.364;6.788;2023-02-26T06:03:36;6.83;;;1.00;;
9214;SDS011;4642;51.364;6.788;2023-02-26T06:06:04;4.47;;;1.20;;
9214;SDS011;4642;51.364;6.788;2023-02-26T06:08:29;3.47;;;1.00;;
9214;SDS011;4642;51.364;6.788;2023-02-26T06:10:55;4.47;;;1.47;;
9214;SDS011;4642;51.364;6.788;2023-02-26T06:13:20;4.73;;;0.90;;
9214;SDS011;4642;51.364;6.788;2023-02-26T06:15:48;3.53;;;0.80;;
9214;SDS011;4642;51.364;6.788;2023-02-26T06:18:14;2.57;;;1.10;;
9214;SDS011;4642;51.364;6.788;2023-02-26T06:20:40;5.50;;;1.07;;
9214;SDS011;4642;51.364;6.788;2023-02-26T06:23:05;4.20;;;1.00;;
9214;SDS011;4642;51.364;6.788;2023-02-26T06:25:31;5.50;;;1.13;;
9214;SDS011;4642;51.364;6.788;2023-02-26T06:27:56;3.13;;;0.87;;
9214;SDS011;4642;51.364;6.788;2023-02-26T06:30:22;6.10;;;1.10;;
9214;SDS011;4642;51.364;6.788;2023-02-26T06:32:47;2.47;;;0.77;;
9214;SDS011;4642;51.364;6.788;2023-02-26T06:35:13;2.53;;;1.03;;
9214;SDS011;4642;51.364;6.788;2023-02-26T06:37:39;4.37;;;0.97;;
9214;SDS011;4642;51.364;6.788;2023-02-26T06:40:05;3.30;;;1.30;;
9214;SDS011;4642;51.364;6.788;2023-02-26T06:42:31;4.07;;;1.20;;
9214;SDS011;4642;51.364;6.788;2023-02-26T06:44:56;11.23;;;1.43;;
9214;SDS011;4642;51.364;6.788;2023-02-26T06:47:22;4.47;;;1.40;;
9214;SDS011;4642;51.364;6.788;2023-02-26T06:49:48;1.60;;;0.87;;
9214;SDS011;4642;51.364;6.788;2023-02-26T06:52:14;1.30;;;0.90;;
9214;SDS011;4642;51.364;6.788;2023-02-26T06:54:39;2.37;;;0.77;;
9214;SDS011;4642;51.364;6.788;2023-02-26T06:57:05;4.27;;;1.33;;
9214;SDS011;4642;51.364;6.788;2023-02-26T06:59:30;3.40;;;0.87;;
9214;SDS011;4642;51.364;6.788;2023-02-26T07:01:56;3.17;;;1.10;;
9214;SDS011;4642;51.364;6.788;2023-02-26T07:04:21;1.43;;;0.90;;
9214;SDS011;4642;51.364;6.788;2023-02-26T07:06:47;3.87;;;0.70;;
9214;SDS011;4642;51.364;6.788;2023-02-26T07:09:12;2.27;;;1.33;;
9214;SDS011;4642;51.364;6.788;2023-02-26T07:11:38;3.33;;;0.90;;
9214;SDS011;4642;51.364;6.788;2023-02-26T07:14:03;1.40;;;0.73;;
9214;SDS011;4642;51.364;6.788;2023-02-26T07:16:29;1.73;;;0.90;;
9214;SDS011;4642;51.364;6.788;2023-02-26T07:18:55;3.30;;;0.93;;
9214;SDS011;4642;51.364;6.788;2023-02-26T07:21:20;4.47;;;1.27;;
9214;SDS011;4642;51.364;6.788;2023-02-26T07:23:46;3.67;;;1.33;;
9214;SDS011;4642;51.364;6.788;2023-02-26T07:26:12;4.77;;;0.90;;
9214;SDS011;4642;51.364;6.788;2023-02-26T07:28:37;3.13;;;1.00;;
9214;SDS011;4642;51.364;6.788;2023-02-26T07:31:03;3.37;;;0.97;;
9214;SDS011;4642;51.364;6.788;2023-02-26T07:33:28;5.43;;;1.00;;
9214;SDS011;4642;51.364;6.788;2023-02-26T07:35:55;1.40;;;0.87;;
9214;SDS011;4642;51.364;6.788;2023-02-26T07:38:21;1.03;;;0.83;;
9214;SDS011;4642;51.364;6.788;2023-02-26T07:40:46;4.17;;;1.33;;
9214;SDS011;4642;51.364;6.788;2023-02-26T07:43:12;1.77;;;1.00;;
9214;SDS011;4642;51.364;6.788;2023-02-26T07:45:38;4.63;;;1.17;;
9214;SDS011;4642;51.364;6.788;2023-02-26T07:48:03;2.57;;;1.00;;
9214;SDS011;4642;51.364;6.788;2023-02-26T07:50:29;2.00;;;1.10;;
9214;SDS011;4642;51.364;6.788;2023-02-26T07:52:54;5.47;;;1.10;;
9214;SDS011;4642;51.364;6.788;2023-02-26T07:55:20;4.03;;;1.33;;
9214;SDS011;4642;51.364;6.788;2023-02-26T07:57:46;9.87;;;1.00;;
9214;SDS011;4642;51.364;6.788;2023-02-26T08:00:12;8.27;;;1.93;;
9214;SDS011;4642;51.364;6.788;2023-02-26T08:02:38;2.93;;;1.13;;
9214;SDS011;4642;51.364;6.788;2023-02-26T08:05:04;3.57;;;1.37;;
9214;SDS011;4642;51.364;6.788;2023-02-26T08:07:30;4.73;;;1.07;;
9214;SDS011;4642;51.364;6.788;2023-02-26T08:09:56;4.80;;;1.10;;
9214;SDS011;4642;51.364;6.788;2023-02-26T08:12:21;2.30;;;1.03;;
9214;SDS011;4642;51.364;6.788;2023-02-26T08:14:47;2.87;;;1.63;;
9214;SDS011;4642;51.364;6.788;2023-02-26T08:17:12;5.17;;;1.00;;
9214;SDS011;4642;51.364;6.788;2023-02-26T08:19:38;2.40;;;1.20;;
9214;SDS011;4642;51.364;6.788;2023-02-26T08:22:04;3.07;;;1.67;;
9214;SDS011;4642;51.364;6.788;2023-02-26T08:24:29;5.57;;;1.30;;
9214;SDS011;4642;51.364;6.788;2023-02-26T08:26:55;2.07;;;1.03;;
9214;SDS011;4642;51.364;6.788;2023-02-26T08:29:20;5.40;;;1.20;;
9214;SDS011;4642;51.364;6.788;2023-02-26T08:31:46;4.73;;;0.87;;
9214;SDS011;4642;51.364;6.788;2023-02-26T08:34:12;3.07;;;1.07;;
9214;SDS011;4642;51.364;6.788;2023-02-26T08:36:38;4.33;;;1.03;;
9214;SDS011;4642;51.364;6.788;2023-02-26T08:39:03;3.27;;;1.10;;
9214;SDS011;4642;51.364;6.788;2023-02-26T08:41:31;1.47;;;0.73;;
9214;SDS011;4642;51.364;6.788;2023-02-26T08:43:59;2.53;;;1.00;;
9214;SDS011;4642;51.364;6.788;2023-02-26T08:46:25;2.80;;;0.93;;
9214;SDS011;4642;51.364;6.788;2023-02-26T08:48:51;8.87;;;1.27;;
9214;SDS011;4642;51.364;6.788;2023-02-26T08:51:17;3.83;;;1.20;;
9214;SDS011;4642;51.364;6.788;2023-02-26T08:53:43;5.77;;;1.00;;
9214;SDS011;4642;51.364;6.788;2023-02-26T08:56:11;2.37;;;0.83;;
9214;SDS011;4642;51.364;6.788;2023-02-26T08:58:37;1.53;;;0.80;;
9214;SDS011;4642;51.364;6.788;2023-02-26T09:01:02;5.47;;;0.97;;
9214;SDS011;4642;51.364;6.788;2023-02-26T09:03:28;4.20;;;1.03;;
9214;SDS011;4642;51.364;6.788;2023-02-26T09:05:54;0.87;;;0.70;;
9214;SDS011;4642;51.364;6.788;2023-02-26T09:08:19;1.70;;;0.90;;
9214;SDS011;4642;51.364;6.788;2023-02-26T09:10:45;4.07;;;1.17;;
9214;SDS011;4642;51.364;6.788;2023-02-26T09:13:11;1.33;;;0.80;;
9214;SDS011;4642;51.364;6.788;2023-02-26T09:15:36;1.83;;;0.90;;
9214;SDS011;4642;51.364;6.788;2023-02-26T09:18:02;1.37;;;0.80;;
9214;SDS011;4642;51.364;6.788;2023-02-26T09:20:28;2.10;;;1.00;;
9214;SDS011;4642;51.364;6.788;2023-02-26T09:22:54;2.20;;;1.00;;
9214;SDS011;4642;51.364;6.788;2023-02-26T09:25:19;1.47;;;0.73;;
9214;SDS011;4642;51.364;6.788;2023-02-26T09:27:45;1.53;;;0.90;;
9214;SDS011;4642;51.364;6.788;2023-02-26T09:30:10;3.27;;;0.77;;
9214;SDS011;4642;51.364;6.788;2023-02-26T09:32:36;4.77;;;0.93;;
9214;SDS011;4642;51.364;6.788;2023-02-26T09:35:02;3.53;;;1.00;;
9214;SDS011;4642;51.364;6.788;2023-02-26T09:37:29;1.23;;;0.83;;
9214;SDS011;4642;51.364;6.788;2023-02-26T09:39:55;3.50;;;0.90;;
9214;SDS011;4642;51.364;6.788;2023-02-26T09:45:26;3.67;;;0.97;;
9214;SDS011;4642;51.364;6.788;2023-02-26T09:47:58;4.33;;;1.00;;
9214;SDS011;4642;51.364;6.788;2023-02-26T09:53:29;4.67;;;1.10;;
9214;SDS011;4642;51.364;6.788;2023-02-26T09:56:00;3.37;;;0.80;;
9214;SDS011;4642;51.364;6.788;2023-02-26T10:01:14;1.97;;;0.70;;
9214;SDS011;4642;51.364;6.788;2023-02-26T10:06:25;1.43;;;0.90;;
9214;SDS011;4642;51.364;6.788;2023-02-26T10:11:52;2.00;;;0.80;;
9214;SDS011;4642;51.364;6.788;2023-02-26T10:14:29;3.20;;;0.90;;
9214;SDS011;4642;51.364;6.788;2023-02-26T10:17:02;2.43;;;0.80;;
9214;SDS011;4642;51.364;6.788;2023-02-26T10:19:39;3.13;;;0.90;;
9214;SDS011;4642;51.364;6.788;2023-02-26T10:22:15;3.30;;;0.80;;
9214;SDS011;4642;51.364;6.788;2023-02-26T10:25:18;2.47;;;0.87;;
9214;SDS011;4642;51.364;6.788;2023-02-26T10:27:51;3.83;;;0.80;;
9214;SDS011;4642;51.364;6.788;2023-02-26T10:30:39;1.60;;;0.73;;
9214;SDS011;4642;51.364;6.788;2023-02-26T10:33:17;3.77;;;1.00;;
9214;SDS011;4642;51.364;6.788;2023-02-26T10:35:52;4.07;;;0.80;;
9214;SDS011;4642;51.364;6.788;2023-02-26T10:38:26;5.97;;;0.70;;
9214;SDS011;4642;51.364;6.788;2023-02-26T10:43:48;5.17;;;0.90;;
9214;SDS011;4642;51.364;6.788;2023-02-26T10:46:45;4.07;;;1.10;;
9214;SDS011;4642;51.364;6.788;2023-02-26T10:49:30;1.37;;;0.83;;
9214;SDS011;4642;51.364;6.788;2023-02-26T10:52:13;1.17;;;0.60;;
9214;SDS011;4642;51.364;6.788;2023-02-26T10:54:44;2.23;;;0.90;;
9214;SDS011;4642;51.364;6.788;2023-02-26T10:57:33;3.20;;;0.80;;
9214;SDS011;4642;51.364;6.788;2023-02-26T11:00:03;1.43;;;0.50;;
9214;SDS011;4642;51.364;6.788;2023-02-26T11:02:40;2.00;;;0.90;;
9214;SDS011;4642;51.364;6.788;2023-02-26T11:05:16;2.30;;;0.70;;
9214;SDS011;4642;51.364;6.788;2023-02-26T11:07:46;2.00;;;0.63;;
9214;SDS011;4642;51.364;6.788;2023-02-26T11:10:16;1.90;;;0.50;;
9214;SDS011;4642;51.364;6.788;2023-02-26T11:12:44;2.70;;;0.70;;
9214;SDS011;4642;51.364;6.788;2023-02-26T11:15:13;1.00;;;0.60;;
9214;SDS011;4642;51.364;6.788;2023-02-26T11:17:44;5.00;;;0.73;;
9214;SDS011;4642;51.364;6.788;2023-02-26T11:20:14;2.97;;;0.77;;
9214;SDS011;4642;51.364;6.788;2023-02-26T11:22:51;3.67;;;0.87;;
9214;SDS011;4642;51.364;6.788;2023-02-26T11:25:22;1.53;;;0.60;;
9214;SDS011;4642;51.364;6.788;2023-02-26T11:27:49;1.80;;;0.67;;
9214;SDS011;4642;51.364;6.788;2023-02-26T11:30:21;1.03;;;0.53;;
9214;SDS011;4642;51.364;6.788;2023-02-26T11:32:51;1.80;;;0.60;;
9214;SDS011;4642;51.364;6.788;2023-02-26T11:35:22;2.70;;;0.70;;
9214;SDS011;4642;51.364;6.788;2023-02-26T11:37:53;2.03;;;0.80;;
9214;SDS011;4642;51.364;6.788;2023-02-26T11:40:27;1.50;;;0.50;;
9214;SDS011;4642;51.364;6.788;2023-02-26T11:43:02;2.40;;;0.77;;
9214;SDS011;4642;51.364;6.788;2023-02-26T11:45:35;2.10;;;0.77;;
9214;SDS011;4642;51.364;6.788;2023-02-26T11:48:04;0.90;;;0.87;;
9214;SDS011;4642;51.364;6.788;2023-02-26T11:50:35;2.70;;;0.70;;
9214;SDS011;4642;51.364;6.788;2023-02-26T11:53:09;1.37;;;0.73;;
9214;SDS011;4642;51.364;6.788;2023-02-26T11:56:01;6.00;;;0.73;;
9214;SDS011;4642;51.364;6.788;2023-02-26T11:58:36;2.23;;;0.60;;
9214;SDS011;4642;51.364;6.788;2023-02-26T12:01:05;1.27;;;0.50;;
9214;SDS011;4642;51.364;6.788;2023-02-26T12:03:33;1.03;;;0.60;;
9214;SDS011;4642;51.364;6.788;2023-02-26T12:06:03;1.53;;;0.70;;
9214;SDS011;4642;51.364;6.788;2023-02-26T12:08:31;1.57;;;0.63;;
9214;SDS011;4642;51.364;6.788;2023-02-26T12:19:45;1.53;;;0.60;;
9214;SDS011;4642;51.364;6.788;2023-02-26T12:25:11;0.83;;;0.57;;
9214;SDS011;4642;51.364;6.788;2023-02-26T12:30:43;1.37;;;0.40;;
9214;SDS011;4642;51.364;6.788;2023-02-26T12:36:35;0.80;;;0.60;;
9214;SDS011;4642;51.364;6.788;2023-02-26T12:42:49;1.90;;;0.83;;
9214;SDS011;4642;51.364;6.788;2023-02-26T12:53:55;0.97;;;0.70;;
9214;SDS011;4642;51.364;6.788;2023-02-26T12:59:28;1.90;;;0.60;;
9214;SDS011;4642;51.364;6.788;2023-02-26T13:10:33;0.70;;;0.60;;
9214;SDS011;4642;51.364;6.788;2023-02-26T13:21:35;1.97;;;0.90;;
9214;SDS011;4642;51.364;6.788;2023-02-26T13:24:09;0.87;;;0.60;;
9214;SDS011;4642;51.364;6.788;2023-02-26T13:26:41;1.87;;;0.70;;
9214;SDS011;4642;51.364;6.788;2023-02-26T13:29:12;1.50;;;0.60;;
9214;SDS011;4642;51.364;6.788;2023-02-26T13:31:52;2.20;;;0.57;;
9214;SDS011;4642;51.364;6.788;2023-02-26T13:34:38;1.80;;;0.70;;
9214;SDS011;4642;51.364;6.788;2023-02-26T13:37:09;1.17;;;0.67;;
9214;SDS011;4642;51.364;6.788;2023-02-26T13:39:47;0.93;;;0.70;;
9214;SDS011;4642;51.364;6.788;2023-02-26T13:50:43;0.97;;;0.50;;
9214;SDS011;4642;51.364;6.788;2023-02-26T13:53:34;1.90;;;0.50;;
9214;SDS011;4642;51.364;6.788;2023-02-26T13:56:17;1.17;;;0.60;;
9214;SDS011;4642;51.364;6.788;2023-02-26T13:58:51;0.60;;;0.60;;
9214;SDS011;4642;51.364;6.788;2023-02-26T14:06:43;2.93;;;0.70;;
9214;SDS011;4642;51.364;6.788;2023-02-26T14:14:30;2.43;;;0.50;;
9214;SDS011;4642;51.364;6.788;2023-02-26T14:19:37;0.87;;;0.50;;
9214;SDS011;4642;51.364;6.788;2023-02-26T14:24:53;2.30;;;0.73;;
9214;SDS011;4642;51.364;6.788;2023-02-26T14:27:40;3.00;;;0.50;;
9214;SDS011;4642;51.364;6.788;2023-02-26T14:32:34;2.57;;;0.60;;
9214;SDS011;4642;51.364;6.788;2023-02-26T14:35:10;1.80;;;0.90;;
9214;SDS011;4642;51.364;6.788;2023-02-26T14:37:39;0.67;;;0.60;;
9214;SDS011;4642;51.364;6.788;2023-02-26T14:45:09;0.50;;;0.50;;
9214;SDS011;4642;51.364;6.788;2023-02-26T14:47:41;1.73;;;0.77;;
9214;SDS011;4642;51.364;6.788;2023-02-26T14:50:10;2.53;;;0.60;;
9214;SDS011;4642;51.364;6.788;2023-02-26T14:52:48;1.20;;;0.80;;
9214;SDS011;4642;51.364;6.788;2023-02-26T14:56:05;1.63;;;0.73;;
9214;SDS011;4642;51.364;6.788;2023-02-26T14:58:48;2.00;;;0.80;;
9214;SDS011;4642;51.364;6.788;2023-02-26T15:09:28;1.17;;;0.70;;
9214;SDS011;4642;51.364;6.788;2023-02-26T15:12:27;1.17;;;0.70;;
9214;SDS011;4642;51.364;6.788;2023-02-26T15:15:17;3.77;;;0.70;;
9214;SDS011;4642;51.364;6.788;2023-02-26T15:20:52;0.63;;;0.50;;
9214;SDS011;4642;51.364;6.788;2023-02-26T15:23:40;1.47;;;0.60;;
9214;SDS011;4642;51.364;6.788;2023-02-26T15:26:18;0.70;;;0.53;;
9214;SDS011;4642;51.364;6.788;2023-02-26T15:28:47;2.30;;;0.90;;
9214;SDS011;4642;51.364;6.788;2023-02-26T15:31:14;1.40;;;0.63;;
9214;SDS011;4642;51.364;6.788;2023-02-26T15:33:42;2.23;;;0.93;;
9214;SDS011;4642;51.364;6.788;2023-02-26T15:36:12;1.70;;;0.73;;
9214;SDS011;4642;51.364;6.788;2023-02-26T15:38:45;2.13;;;0.67;;
9214;SDS011;4642;51.364;6.788;2023-02-26T15:41:18;1.00;;;0.60;;
9214;SDS011;4642;51.364;6.788;2023-02-26T15:43:51;2.27;;;0.90;;
9214;SDS011;4642;51.364;6.788;2023-02-26T15:46:24;1.13;;;0.67;;
9214;SDS011;4642;51.364;6.788;2023-02-26T15:48:54;2.40;;;0.83;;
9214;SDS011;4642;51.364;6.788;2023-02-26T15:51:24;2.23;;;0.80;;
9214;SDS011;4642;51.364;6.788;2023-02-26T15:53:50;2.70;;;0.80;;
9214;SDS011;4642;51.364;6.788;2023-02-26T15:56:19;1.00;;;0.60;;
9214;SDS011;4642;51.364;6.788;2023-02-26T15:59:00;1.20;;;0.70;;
9214;SDS011;4642;51.364;6.788;2023-02-26T16:01:28;1.17;;;0.90;;
9214;SDS011;4642;51.364;6.788;2023-02-26T16:03:56;1.77;;;0.70;;
9214;SDS011;4642;51.364;6.788;2023-02-26T16:06:27;1.73;;;0.60;;
9214;SDS011;4642;51.364;6.788;2023-02-26T16:08:55;4.50;;;0.83;;
9214;SDS011;4642;51.364;6.788;2023-02-26T16:11:20;1.57;;;0.80;;
9214;SDS011;4642;51.364;6.788;2023-02-26T16:13:48;2.13;;;0.70;;
9214;SDS011;4642;51.364;6.788;2023-02-26T16:16:26;1.30;;;0.70;;
9214;SDS011;4642;51.364;6.788;2023-02-26T16:18:57;1.20;;;0.70;;
9214;SDS011;4642;51.364;6.788;2023-02-26T16:21:28;1.93;;;0.90;;
9214;SDS011;4642;51.364;6.788;2023-02-26T16:23:58;2.40;;;1.10;;
9214;SDS011;4642;51.364;6.788;2023-02-26T16:26:30;3.50;;;0.83;;
9214;SDS011;4642;51.364;6.788;2023-02-26T16:29:11;1.00;;;0.70;;
9214;SDS011;4642;51.364;6.788;2023-02-26T16:31:38;1.43;;;0.90;;
9214;SDS011;4642;51.364;6.788;2023-02-26T16:36:47;3.97;;;0.73;;
9214;SDS011;4642;51.364;6.788;2023-02-26T16:39:16;3.57;;;0.93;;
9214;SDS011;4642;51.364;6.788;2023-02-26T16:41:53;1.70;;;0.70;;
9214;SDS011;4642;51.364;6.788;2023-02-26T16:46:55;1.03;;;0.80;;
9214;SDS011;4642;51.364;6.788;2023-02-26T16:49:55;1.03;;;0.63;;
9214;SDS011;4642;51.364;6.788;2023-02-26T16:52:18;2.93;;;1.13;;
9214;SDS011;4642;51.364;6.788;2023-02-26T16:54:49;2.70;;;0.90;;
9214;SDS011;4642;51.364;6.788;2023-02-26T16:57:24;2.47;;;0.70;;
9214;SDS011;4642;51.364;6.788;2023-02-26T17:00:00;1.83;;;1.03;;
9214;SDS011;4642;51.364;6.788;2023-02-26T17:02:33;2.57;;;0.90;;
9214;SDS011;4642;51.364;6.788;2023-02-26T17:05:01;0.97;;;0.67;;
9214;SDS011;4642;51.364;6.788;2023-02-26T17:07:34;2.90;;;0.80;;
9214;SDS011;4642;51.364;6.788;2023-02-26T17:10:44;0.80;;;0.80;;
9214;SDS011;4642;51.364;6.788;2023-02-26T17:15:44;2.63;;;0.80;;
9214;SDS011;4642;51.364;6.788;2023-02-26T17:18:11;1.50;;;0.80;;
9214;SDS011;4642;51.364;6.788;2023-02-26T17:20:37;2.03;;;0.90;;
9214;SDS011;4642;51.364;6.788;2023-02-26T17:23:04;2.30;;;0.90;;
9214;SDS011;4642;51.364;6.788;2023-02-26T17:25:33;3.33;;;0.90;;
9214;SDS011;4642;51.364;6.788;2023-02-26T17:28:02;2.40;;;1.00;;
9214;SDS011;4642;51.364;6.788;2023-02-26T17:30:29;0.93;;;0.80;;
9214;SDS011;4642;51.364;6.788;2023-02-26T17:32:57;1.70;;;0.93;;
9214;SDS011;4642;51.364;6.788;2023-02-26T17:35:24;1.53;;;0.70;;
9214;SDS011;4642;51.364;6.788;2023-02-26T17:37:50;3.00;;;0.83;;
9214;SDS011;4642;51.364;6.788;2023-02-26T17:42:52;3.90;;;1.03;;
9214;SDS011;4642;51.364;6.788;2023-02-26T17:45:18;3.20;;;1.03;;
9214;SDS011;4642;51.364;6.788;2023-02-26T17:47:44;1.40;;;1.00;;
9214;SDS011;4642;51.364;6.788;2023-02-26T17:50:17;1.40;;;0.90;;
9214;SDS011;4642;51.364;6.788;2023-02-26T17:52:48;3.83;;;0.83;;
9214;SDS011;4642;51.364;6.788;2023-02-26T17:55:14;2.83;;;1.10;;
9214;SDS011;4642;51.364;6.788;2023-02-26T17:57:39;1.67;;;0.90;;
9214;SDS011;4642;51.364;6.788;2023-02-26T18:00:05;0.70;;;0.60;;
9214;SDS011;4642;51.364;6.788;2023-02-26T18:02:32;2.07;;;1.10;;
9214;SDS011;4642;51.364;6.788;2023-02-26T18:04:58;2.57;;;1.00;;